Time;durP1;ratioP1;P1;durP2;ratioP2;P2;SDS_P1;SDS_P2;PMS_P1;PMS_P2;Temp;Humidity;BMP_temperature;BMP_pressure;BME280_temperature;BME280_humidity;BME280_pressure;Samples;Min_cycle;Max_cycle;Signal;HPM_P1;HPM_P2
2023/06/30 00:01:28;;;;;;;6.55;4.05;;;;;;;20.08;57.09;101368.00;4986377;28;119310;-74
2023/06/30 00:03:56;;;;;;;6.18;3.88;;;;;;;20.07;57.14;101365.41;4986411;28;118642;-75
2023/06/30 00:06:24;;;;;;;8.27;4.05;;;;;;;20.06;57.15;101369.94;4986394;28;124322;-74
2023/06/30 00:08:51;;;;;;;9.27;4.25;;;;;;;20.03;57.21;101365.66;4986301;28;124713;-74
2023/06/30 00:11:23;;;;;;;7.22;4.03;;;;;;;20.01;57.42;101367.59;4985807;28;119127;-74
2023/06/30 00:13:52;;;;;;;6.45;4.10;;;;;;;19.99;57.41;101364.16;4965795;28;119826;-74
2023/06/30 00:16:19;;;;;;;7.90;3.97;;;;;;;19.97;57.58;101371.50;4968465;28;124810;-75
2023/06/30 00:18:47;;;;;;;7.50;3.85;;;;;;;19.98;57.36;101367.81;4985111;28;122960;-74
2023/06/30 00:21:14;;;;;;;10.95;4.28;;;;;;;19.95;57.29;101360.00;4969015;28;117661;-75
2023/06/30 00:23:41;;;;;;;8.15;4.03;;;;;;;19.94;57.58;101360.97;4989221;28;119279;-75
2023/06/30 00:26:09;;;;;;;8.23;4.20;;;;;;;19.93;57.62;101359.28;5001554;28;124501;-74
2023/06/30 00:28:36;;;;;;;7.43;4.35;;;;;;;19.92;57.67;101362.91;4990473;28;123752;-75
2023/06/30 00:31:03;;;;;;;8.15;4.13;;;;;;;19.91;57.50;101360.34;4970345;28;119056;-75
2023/06/30 00:33:30;;;;;;;10.20;4.20;;;;;;;19.92;57.64;101368.31;4989551;28;119355;-75
2023/06/30 00:35:57;;;;;;;7.28;3.78;;;;;;;19.92;57.50;101362.91;4970366;28;123317;-75
2023/06/30 00:38:25;;;;;;;8.93;3.88;;;;;;;19.90;57.52;101364.88;5001495;28;124315;-75
2023/06/30 00:40:52;;;;;;;9.25;3.83;;;;;;;19.91;57.51;101371.09;5003333;28;119370;-74
2023/06/30 00:43:19;;;;;;;10.57;4.00;;;;;;;19.89;57.22;101368.56;4971094;28;118599;-75
2023/06/30 00:45:47;;;;;;;9.48;3.90;;;;;;;19.87;57.38;101365.09;4988507;28;123898;-75
2023/06/30 00:48:17;;;;;;;9.80;3.85;;;;;;;19.83;57.20;101363.63;4988845;28;123813;-75
2023/06/30 00:50:44;;;;;;;7.53;3.63;;;;;;;19.81;57.12;101371.78;4988146;28;119829;-74
2023/06/30 00:53:13;;;;;;;6.78;3.25;;;;;;;19.78;57.18;101361.28;4989079;28;119264;-74
2023/06/30 00:55:40;;;;;;;6.65;3.58;;;;;;;19.75;56.99;101366.03;4988209;28;124276;-75
2023/06/30 00:58:08;;;;;;;6.50;2.97;;;;;;;19.73;57.11;101378.75;4988560;28;123677;-75
2023/06/30 01:00:36;;;;;;;8.68;3.30;;;;;;;19.65;57.08;101369.38;4987620;28;120412;-75
2023/06/30 01:03:19;;;;;;;9.27;3.55;;;;;;;19.63;57.14;101373.19;4980008;28;119283;-75
2023/06/30 01:05:59;;;;;;;9.38;3.22;;;;;;;19.57;56.99;101369.13;4984956;28;123777;-75
2023/06/30 01:08:34;;;;;;;7.78;3.08;;;;;;;19.55;57.03;101379.13;4985196;28;123122;-75
2023/06/30 01:11:02;;;;;;;8.75;3.20;;;;;;;19.54;56.99;101369.34;4986296;28;118871;-75
2023/06/30 01:13:31;;;;;;;7.82;3.17;;;;;;;19.53;57.09;101372.97;4970554;28;119530;-75
2023/06/30 01:15:58;;;;;;;6.75;2.83;;;;;;;19.52;56.99;101379.34;4985478;28;123981;-74
2023/06/30 01:18:26;;;;;;;8.93;3.47;;;;;;;19.50;56.95;101378.59;4988582;28;124420;-75
2023/06/30 01:20:59;;;;;;;10.43;3.00;;;;;;;19.47;56.89;101373.44;4969199;28;118853;-75
2023/06/30 01:23:40;;;;;;;4.78;3.00;;;;;;;19.43;56.87;101371.97;4984751;28;120581;-75
2023/06/30 01:26:08;;;;;;;6.95;2.88;;;;;;;19.40;56.81;101377.56;4982203;28;125369;-75
2023/06/30 01:28:37;;;;;;;9.00;3.00;;;;;;;19.34;56.89;101378.00;4970018;28;123046;-75
2023/06/30 01:31:09;;;;;;;8.85;3.00;;;;;;;19.30;57.09;101377.38;4968729;28;118479;-75
2023/06/30 01:33:37;;;;;;;8.68;3.00;;;;;;;19.24;57.00;101376.00;4973361;28;119605;-75
2023/06/30 01:36:06;;;;;;;8.70;2.80;;;;;;;19.21;57.09;101378.94;4999888;28;124514;-75
2023/06/30 01:38:33;;;;;;;8.18;2.83;;;;;;;19.17;56.84;101377.41;4953600;28;123661;-75
2023/06/30 01:41:01;;;;;;;9.52;2.78;;;;;;;19.16;56.88;101383.75;4987417;28;119490;-75
2023/06/30 01:43:30;;;;;;;7.30;2.88;;;;;;;19.12;56.76;101384.97;4987859;28;119305;-75
2023/06/30 01:45:57;;;;;;;7.28;2.78;;;;;;;19.10;56.82;101381.53;4987065;28;124049;-75
2023/06/30 01:48:25;;;;;;;6.22;2.78;;;;;;;19.07;56.80;101381.75;4987822;28;123717;-75
2023/06/30 01:50:55;;;;;;;10.10;3.42;;;;;;;19.05;57.00;101378.31;4987152;28;120051;-75
2023/06/30 01:53:22;;;;;;;9.73;2.97;;;;;;;19.01;57.00;101371.47;4987392;28;119339;-75
2023/06/30 01:55:54;;;;;;;8.10;2.92;;;;;;;18.98;56.76;101371.66;4969166;28;123792;-75
2023/06/30 01:58:21;;;;;;;10.27;3.20;;;;;;;18.95;56.76;101371.88;4984530;28;124615;-75
2023/06/30 02:00:49;;;;;;;8.82;2.70;;;;;;;18.90;57.08;101364.16;4969814;28;118590;-75
2023/06/30 02:03:16;;;;;;;9.90;3.20;;;;;;;18.89;57.01;101375.00;4969425;28;118142;-74
2023/06/30 02:05:44;;;;;;;11.43;3.20;;;;;;;18.86;56.83;101374.25;4987006;28;124009;-75
2023/06/30 02:08:12;;;;;;;7.03;2.72;;;;;;;18.82;56.84;101367.41;4987973;28;124323;-75
2023/06/30 02:10:42;;;;;;;7.07;2.97;;;;;;;18.80;56.78;101372.03;4969184;28;118931;-76
2023/06/30 02:13:09;;;;;;;6.55;2.58;;;;;;;18.76;56.78;101366.94;4985896;28;118536;-74
2023/06/30 02:15:36;;;;;;;9.45;2.88;;;;;;;18.72;56.65;101377.03;4968127;28;124316;-75
2023/06/30 02:18:03;;;;;;;8.40;3.17;;;;;;;18.69;56.63;101377.25;4969371;28;124747;-75
2023/06/30 02:20:32;;;;;;;7.00;2.85;;;;;;;18.65;56.75;101359.66;4969128;28;118475;-74
2023/06/30 02:22:59;;;;;;;10.13;3.15;;;;;;;18.61;56.82;101375.13;4985508;28;118114;-75
2023/06/30 02:25:26;;;;;;;10.27;2.90;;;;;;;18.57;56.70;101368.28;4967192;28;123907;-75
2023/06/30 02:27:53;;;;;;;9.32;2.90;;;;;;;18.54;56.69;101367.63;4969336;28;123484;-74
2023/06/30 02:30:21;;;;;;;7.93;3.05;;;;;;;18.49;56.63;101371.47;4968932;28;119163;-75
2023/06/30 02:32:48;;;;;;;8.55;2.80;;;;;;;18.45;56.51;101369.97;4969413;28;118460;-75
2023/06/30 02:35:15;;;;;;;8.63;2.90;;;;;;;18.40;56.76;101371.25;4986756;28;123951;-75
2023/06/30 02:37:43;;;;;;;9.65;3.00;;;;;;;18.34;56.71;101372.53;4969154;28;124092;-75
2023/06/30 02:40:10;;;;;;;9.80;2.88;;;;;;;18.26;56.76;101375.75;4987217;28;121117;-75
2023/06/30 02:42:37;;;;;;;8.55;2.90;;;;;;;18.22;56.75;101373.41;4986757;28;119911;-75
2023/06/30 02:45:05;;;;;;;7.80;2.75;;;;;;;18.18;56.71;101377.25;4965825;28;124854;-75
2023/06/30 02:47:33;;;;;;;5.82;2.80;;;;;;;18.13;56.97;101374.03;4968865;28;124269;-75
2023/06/30 02:50:00;;;;;;;11.43;2.92;;;;;;;18.08;57.06;101364.47;4993575;28;119658;-75
2023/06/30 02:52:30;;;;;;;7.32;2.97;;;;;;;18.05;57.05;101378.09;4991708;28;119997;-75
2023/06/30 02:54:57;;;;;;;9.32;2.85;;;;;;;18.01;56.67;101379.25;4968206;28;122570;-75
2023/06/30 02:57:25;;;;;;;6.25;3.08;;;;;;;17.97;56.95;101385.78;4987415;28;124273;-75
2023/06/30 02:59:52;;;;;;;6.55;2.90;;;;;;;17.92;56.83;101381.72;4968689;28;118882;-75
2023/06/30 03:02:19;;;;;;;6.15;2.83;;;;;;;17.88;56.89;101386.41;4968082;28;117812;-75
2023/06/30 03:04:47;;;;;;;8.23;2.97;;;;;;;17.85;57.07;101391.97;4981391;28;123116;-75
2023/06/30 03:07:16;;;;;;;5.05;2.88;;;;;;;17.79;57.11;101395.88;4984376;28;123682;-74
2023/06/30 03:09:44;;;;;;;5.43;2.80;;;;;;;17.75;57.05;101391.69;4967612;28;119412;-75
2023/06/30 03:12:13;;;;;;;8.93;2.88;;;;;;;17.71;57.12;101390.19;4967572;28;120087;-75
2023/06/30 03:14:41;;;;;;;10.80;3.03;;;;;;;17.68;57.20;101399.25;4966625;28;123180;-74
2023/06/30 03:17:09;;;;;;;8.50;3.20;;;;;;;17.64;57.24;101395.06;4967050;28;124264;-74
2023/06/30 03:19:36;;;;;;;9.80;3.50;;;;;;;17.60;57.27;101388.22;4966236;28;119410;-74
2023/06/30 03:22:03;;;;;;;7.60;3.03;;;;;;;17.57;57.24;101388.41;4966994;28;118537;-74
2023/06/30 03:24:32;;;;;;;8.35;3.17;;;;;;;17.55;57.26;101398.34;4966894;28;125048;-74
2023/06/30 03:26:59;;;;;;;7.28;2.90;;;;;;;17.52;57.43;101390.53;4966988;28;123330;-74
2023/06/30 03:29:27;;;;;;;7.05;3.40;;;;;;;17.49;57.31;101391.59;4968917;28;123474;-72
2023/06/30 03:31:56;;;;;;;8.45;3.42;;;;;;;17.48;57.47;101394.41;4985963;28;120513;-72
2023/06/30 03:34:23;;;;;;;11.40;3.40;;;;;;;17.46;57.34;101386.44;4967057;28;123695;-72
2023/06/30 03:36:51;;;;;;;7.07;3.25;;;;;;;17.46;57.39;101390.94;4985951;28;124263;-72
2023/06/30 03:39:21;;;;;;;6.60;3.30;;;;;;;17.45;57.53;101394.56;4967961;28;118602;-72
2023/06/30 03:41:48;;;;;;;7.85;3.10;;;;;;;17.43;57.47;101381.28;4957811;28;118538;-72
2023/06/30 03:44:17;;;;;;;7.60;3.60;;;;;;;17.42;57.40;101384.06;4966884;28;124388;-72
2023/06/30 03:46:45;;;;;;;8.10;3.13;;;;;;;17.41;57.56;101382.34;4985986;28;123660;-72
2023/06/30 03:49:12;;;;;;;11.15;3.67;;;;;;;17.38;57.56;101377.19;4985868;28;119426;-72
2023/06/30 03:51:41;;;;;;;7.32;3.38;;;;;;;17.36;57.45;101379.09;4968495;28;118363;-72
2023/06/30 03:54:09;;;;;;;9.90;3.33;;;;;;;17.35;57.46;101377.38;4983328;28;122407;-72
2023/06/30 03:56:36;;;;;;;6.43;3.50;;;;;;;17.34;57.61;101381.03;4984154;28;123320;-72
2023/06/30 03:59:05;;;;;;;9.00;3.38;;;;;;;17.34;57.60;101381.03;4968056;28;121650;-72
2023/06/30 04:01:33;;;;;;;5.85;3.67;;;;;;;17.32;57.55;101379.28;4985497;28;119052;-72
2023/06/30 04:04:02;;;;;;;9.25;3.80;;;;;;;17.32;57.51;101381.97;4985588;28;124120;-72
2023/06/30 04:06:30;;;;;;;6.65;3.33;;;;;;;17.30;57.63;101375.88;4991392;28;123625;-72
2023/06/30 04:08:58;;;;;;;6.05;3.75;;;;;;;17.29;57.58;101379.50;4972384;28;118324;-72
2023/06/30 04:11:25;;;;;;;9.15;4.05;;;;;;;17.29;57.77;101374.16;4986361;28;119573;-71
2023/06/30 04:13:52;;;;;;;9.77;3.97;;;;;;;17.27;57.61;101376.09;4966981;28;123651;-72
2023/06/30 04:16:19;;;;;;;6.93;3.55;;;;;;;17.27;57.88;101368.06;4985859;28;123839;-72
2023/06/30 04:18:47;;;;;;;9.40;4.38;;;;;;;17.29;57.74;101367.94;4985237;28;120078;-72
2023/06/30 04:21:14;;;;;;;7.88;3.90;;;;;;;17.30;57.76;101359.78;4983023;28;119904;-72
2023/06/30 04:23:41;;;;;;;9.70;3.80;;;;;;;17.31;57.83;101361.53;4985331;28;124049;-71
2023/06/30 04:26:09;;;;;;;9.75;4.00;;;;;;;17.32;57.75;101368.59;4985354;28;122841;-72
2023/06/30 04:28:36;;;;;;;10.00;4.03;;;;;;;17.35;57.76;101366.66;4984048;28;119928;-72
2023/06/30 04:31:04;;;;;;;8.25;3.75;;;;;;;17.35;57.81;101372.91;4984618;28;119233;-72
2023/06/30 04:33:33;;;;;;;10.02;4.22;;;;;;;17.35;57.82;101372.03;4984989;28;123984;-72
2023/06/30 04:36:01;;;;;;;7.22;4.18;;;;;;;17.35;57.81;101372.03;4968035;28;123628;-72
2023/06/30 04:38:28;;;;;;;10.95;4.40;;;;;;;17.36;57.76;101373.75;4985665;28;121605;-71
2023/06/30 04:40:55;;;;;;;12.80;4.65;;;;;;;17.35;57.83;101372.03;4984930;28;119058;-72
2023/06/30 04:43:22;;;;;;;8.05;4.07;;;;;;;17.36;57.81;101368.41;4984709;28;123726;-72
2023/06/30 04:45:50;;;;;;;9.65;4.68;;;;;;;17.36;57.83;101373.75;4966731;28;123828;-71
2023/06/30 04:48:17;;;;;;;7.75;4.40;;;;;;;17.36;58.06;101368.41;4985289;28;119092;-72
2023/06/30 04:50:44;;;;;;;8.63;4.78;;;;;;;17.39;58.31;101368.22;4984856;28;118975;-72
2023/06/30 04:53:11;;;;;;;8.43;4.45;;;;;;;17.44;58.42;101372.31;4985107;28;124302;-72
2023/06/30 04:55:39;;;;;;;10.10;4.38;;;;;;;17.50;58.35;101384.44;4985083;28;124398;-72
2023/06/30 04:58:06;;;;;;;9.15;4.85;;;;;;;17.57;58.75;101388.41;4985349;28;119216;-71
2023/06/30 05:00:33;;;;;;;8.38;4.63;;;;;;;17.64;58.57;101384.38;4965007;28;118615;-72
2023/06/30 05:03:02;;;;;;;11.60;4.38;;;;;;;17.72;58.48;101386.53;4970027;28;123277;-71
2023/06/30 05:05:29;;;;;;;7.97;4.13;;;;;;;17.79;58.59;101381.63;4968182;28;123682;-72
2023/06/30 05:07:56;;;;;;;12.38;4.13;;;;;;;17.86;58.55;101380.31;4966397;28;120253;-72
2023/06/30 05:10:23;;;;;;;9.73;4.45;;;;;;;17.93;58.37;101384.25;4983395;28;120092;-72
2023/06/30 05:12:50;;;;;;;7.03;3.88;;;;;;;17.97;58.23;101380.44;4970271;28;124359;-72
2023/06/30 05:15:18;;;;;;;11.43;4.10;;;;;;;18.02;57.92;101383.63;4967612;28;123579;-71
2023/06/30 05:17:45;;;;;;;7.60;4.45;;;;;;;18.04;57.90;101381.72;4970195;28;119355;-72
2023/06/30 05:20:12;;;;;;;7.68;3.58;;;;;;;18.06;57.84;101381.63;4988247;28;119469;-72
2023/06/30 05:22:39;;;;;;;10.10;3.30;;;;;;;18.06;57.71;101379.81;4996298;28;124393;-72
2023/06/30 05:25:07;;;;;;;9.52;3.70;;;;;;;18.07;57.77;101381.50;4990261;28;124335;-72
2023/06/30 05:27:34;;;;;;;11.60;3.60;;;;;;;18.09;57.87;101390.31;4988040;28;120218;-72
2023/06/30 05:30:01;;;;;;;7.45;3.80;;;;;;;18.11;57.72;101384.00;4969901;28;119250;-72
2023/06/30 05:32:28;;;;;;;8.50;3.75;;;;;;;18.14;57.67;101392.69;4986337;28;124051;-72
2023/06/30 05:34:56;;;;;;;11.98;4.30;;;;;;;18.16;57.84;101392.56;4969199;28;123272;-71
2023/06/30 05:37:23;;;;;;;9.30;4.10;;;;;;;18.20;57.93;101391.41;4988299;28;118279;-71
2023/06/30 05:39:50;;;;;;;9.38;4.07;;;;;;;18.24;57.81;101382.19;4971021;28;118716;-72
2023/06/30 05:42:17;;;;;;;7.78;4.32;;;;;;;18.28;57.92;101394.41;4987855;28;124574;-72
2023/06/30 05:44:44;;;;;;;9.95;4.30;;;;;;;18.31;57.83;101394.22;4987140;28;124006;-71
2023/06/30 05:47:12;;;;;;;8.98;4.43;;;;;;;18.35;57.78;101390.34;4970063;28;119318;-72
2023/06/30 05:49:39;;;;;;;11.20;4.32;;;;;;;18.41;57.75;101395.28;4971856;28;118517;-71
2023/06/30 05:52:07;;;;;;;7.57;3.85;;;;;;;18.47;57.82;101394.84;4987686;28;123816;-72
2023/06/30 05:54:34;;;;;;;11.05;4.45;;;;;;;18.54;57.54;101399.81;4987827;28;124328;-72
2023/06/30 05:57:01;;;;;;;8.85;4.28;;;;;;;18.57;57.69;101388.84;4980722;28;119090;-72
2023/06/30 05:59:30;;;;;;;7.35;4.40;;;;;;;18.65;57.60;101386.50;4970491;28;119197;-72
2023/06/30 06:01:57;;;;;;;9.60;4.28;;;;;;;18.73;57.74;101394.84;4986233;28;123822;-72
2023/06/30 06:04:25;;;;;;;7.80;4.28;;;;;;;18.84;57.72;101392.31;4984556;28;124461;-72
2023/06/30 06:06:52;;;;;;;10.02;3.95;;;;;;;18.92;57.54;101393.59;4970707;28;118448;-72
2023/06/30 06:09:20;;;;;;;7.82;4.18;;;;;;;19.02;57.58;101383.91;4987490;28;118858;-72
2023/06/30 06:11:47;;;;;;;10.30;3.97;;;;;;;19.10;57.54;101391.41;4985747;28;122556;-72
2023/06/30 06:14:15;;;;;;;9.52;3.60;;;;;;;19.21;57.36;101395.03;4987269;28;124464;-72
2023/06/30 06:16:45;;;;;;;8.25;3.97;;;;;;;19.31;57.14;101394.34;4987424;28;119424;-72
2023/06/30 06:19:14;;;;;;;8.45;3.63;;;;;;;19.41;57.18;101395.41;4987621;28;119690;-72
2023/06/30 06:21:42;;;;;;;8.32;3.67;;;;;;;19.54;57.26;101396.19;4970220;28;124073;-72
2023/06/30 06:24:09;;;;;;;8.25;3.53;;;;;;;19.70;57.17;101397.75;4987975;28;124147;-72
2023/06/30 06:26:36;;;;;;;5.63;3.28;;;;;;;19.82;56.97;101395.03;4995311;28;119355;-72
2023/06/30 06:29:03;;;;;;;7.85;3.33;;;;;;;19.96;56.67;101390.44;5006007;28;117569;-70
2023/06/30 06:31:31;;;;;;;7.38;3.40;;;;;;;20.09;56.46;101390.38;4987203;28;122205;-72
2023/06/30 06:33:58;;;;;;;8.98;3.60;;;;;;;20.22;55.83;101391.13;4976147;28;123329;-72
2023/06/30 06:36:25;;;;;;;10.85;3.47;;;;;;;20.36;55.96;101387.38;4978108;28;119060;-72
2023/06/30 06:38:52;;;;;;;10.40;3.10;;;;;;;20.49;55.80;101392.66;5008846;28;118992;-72
2023/06/30 06:41:19;;;;;;;6.05;2.88;;;;;;;20.62;55.58;101398.81;4987432;28;123970;-72
2023/06/30 06:43:46;;;;;;;8.50;3.15;;;;;;;20.75;55.15;101388.78;4985412;28;124259;-71
2023/06/30 06:46:13;;;;;;;8.32;3.70;;;;;;;20.90;55.07;101393.94;4967321;28;119431;-72
2023/06/30 06:48:41;;;;;;;5.38;3.05;;;;;;;21.02;54.69;101395.66;4985894;28;119484;-72
2023/06/30 06:51:08;;;;;;;6.10;2.30;;;;;;;21.13;54.21;101395.63;4994222;28;124209;-71
2023/06/30 06:53:35;;;;;;;3.85;2.60;;;;;;;21.27;53.88;101396.34;4989500;28;123760;-72
2023/06/30 06:56:04;;;;;;;7.25;2.72;;;;;;;21.38;53.71;101396.34;4986914;28;119547;-72
2023/06/30 06:58:32;;;;;;;6.53;2.65;;;;;;;21.50;53.13;101400.72;4965139;28;119033;-71
2023/06/30 07:00:59;;;;;;;7.93;2.38;;;;;;;21.63;52.99;101394.34;4987086;28;123828;-72
2023/06/30 07:03:27;;;;;;;3.90;2.13;;;;;;;21.74;52.84;101397.00;4953679;28;123895;-72
2023/06/30 07:05:56;;;;;;;6.25;2.50;;;;;;;21.88;52.54;101393.97;4987773;28;119438;-72
2023/06/30 07:08:24;;;;;;;8.20;2.60;;;;;;;22.03;52.27;101399.06;4952914;28;117944;-72
2023/06/30 07:10:51;;;;;;;4.63;2.40;;;;;;;22.14;52.28;101393.63;4985143;28;125052;-71
2023/06/30 07:13:20;;;;;;;5.65;2.60;;;;;;;22.30;51.95;101388.66;4966181;28;123655;-72
2023/06/30 07:15:48;;;;;;;5.18;1.98;;;;;;;22.44;51.91;101394.72;4969285;28;120122;-72
2023/06/30 07:18:17;;;;;;;7.05;2.08;;;;;;;22.61;51.31;101391.38;4986430;28;119127;-71
2023/06/30 07:20:50;;;;;;;5.10;1.50;;;;;;;22.72;50.64;101388.59;4986661;28;124970;-72
2023/06/30 07:23:17;;;;;;;4.95;1.80;;;;;;;22.83;50.47;101386.78;4986290;28;123796;-72
2023/06/30 07:25:45;;;;;;;3.13;1.55;;;;;;;22.94;49.85;101390.25;4986692;28;119773;-72
2023/06/30 07:28:13;;;;;;;2.80;1.25;;;;;;;23.04;48.98;101397.59;4969201;28;119070;-72
2023/06/30 07:30:41;;;;;;;5.47;1.60;;;;;;;23.10;48.21;101391.63;4985665;28;124100;-72
2023/06/30 07:33:12;;;;;;;3.72;1.30;;;;;;;23.13;48.19;101397.59;4969463;28;124183;-72
2023/06/30 07:35:40;;;;;;;4.40;1.80;;;;;;;23.21;48.15;101398.78;4985788;28;119168;-71
2023/06/30 07:38:07;;;;;;;4.93;1.83;;;;;;;23.29;47.65;101396.22;4999762;28;119805;-72
2023/06/30 07:40:35;;;;;;;2.80;1.40;;;;;;;23.35;47.51;101395.66;4986490;28;123964;-72
2023/06/30 07:43:05;;;;;;;2.78;1.13;;;;;;;23.43;47.28;101398.53;4984446;28;124878;-72
2023/06/30 07:45:32;;;;;;;3.65;1.27;;;;;;;23.51;47.23;101412.22;4986661;28;119262;-72
2023/06/30 07:48:00;;;;;;;3.38;1.30;;;;;;;23.63;46.68;101403.97;4969269;28;119077;-71
2023/06/30 07:50:27;;;;;;;3.70;1.35;;;;;;;23.73;46.00;101399.41;4968119;28;123495;-71
2023/06/30 07:52:54;;;;;;;5.47;1.10;;;;;;;23.79;45.67;101404.31;4986980;28;124594;-71
2023/06/30 07:55:22;;;;;;;4.63;1.35;;;;;;;23.83;45.46;101403.03;5001496;28;119874;-72
2023/06/30 07:57:51;;;;;;;2.28;1.25;;;;;;;23.91;45.37;101402.31;4990117;28;119274;-72
2023/06/30 08:00:18;;;;;;;3.63;1.25;;;;;;;23.99;45.21;101393.47;4967002;28;124098;-71
2023/06/30 08:02:46;;;;;;;3.20;1.50;;;;;;;24.09;44.88;101394.31;4986433;28;124402;-72
2023/06/30 08:05:14;;;;;;;2.50;1.30;;;;;;;24.21;44.38;101393.16;4986490;28;119397;-72
2023/06/30 08:07:42;;;;;;;4.40;1.20;;;;;;;24.31;44.44;101395.00;4986875;28;118682;-72
2023/06/30 08:10:16;;;;;;;2.70;1.40;;;;;;;24.37;44.31;101397.13;4964815;28;124771;-72
2023/06/30 08:12:43;;;;;;;3.72;1.67;;;;;;;24.45;44.39;101394.56;4968367;28;123804;-72
2023/06/30 08:15:10;;;;;;;5.63;1.73;;;;;;;24.53;44.20;101396.56;4986243;28;119672;-72
2023/06/30 08:17:38;;;;;;;3.33;1.40;;;;;;;24.59;43.89;101391.38;4965367;28;118769;-72
2023/06/30 08:20:24;;;;;;;2.90;1.20;;;;;;;24.60;43.45;101393.13;4974969;28;123725;-72
2023/06/30 08:22:53;;;;;;;2.60;1.30;;;;;;;24.60;43.00;101387.69;4986222;28;123960;-71
2023/06/30 08:25:24;;;;;;;3.67;1.17;;;;;;;24.61;42.83;101392.09;4985933;28;120021;-72
2023/06/30 08:27:52;;;;;;;2.28;1.20;;;;;;;24.69;43.41;101394.06;4982951;28;119390;-72
2023/06/30 08:30:19;;;;;;;4.28;1.35;;;;;;;24.72;43.30;101391.06;4968304;28;123991;-72
2023/06/30 08:32:51;;;;;;;4.63;1.40;;;;;;;24.73;42.35;101391.91;4985853;28;123894;-72
2023/06/30 08:35:19;;;;;;;3.00;1.30;;;;;;;24.71;42.20;101383.09;4986908;28;119324;-72
2023/06/30 08:37:46;;;;;;;2.45;1.15;;;;;;;24.73;42.07;101381.06;4969124;28;119276;-72
2023/06/30 08:40:29;;;;;;;4.80;1.20;;;;;;;24.76;42.49;101375.38;4985714;28;123848;-72
2023/06/30 08:42:58;;;;;;;4.05;1.20;;;;;;;24.79;41.98;101385.88;4969747;28;123967;-72
2023/06/30 08:45:27;;;;;;;4.05;1.15;;;;;;;24.81;41.80;101381.22;4970797;28;118527;-72
2023/06/30 08:48:13;;;;;;;4.22;1.67;;;;;;;24.85;41.81;101379.91;4989680;28;118813;-72
2023/06/30 08:50:42;;;;;;;3.58;1.25;;;;;;;24.86;41.39;101371.63;4988520;28;125072;-72
2023/06/30 08:53:09;;;;;;;2.00;1.23;;;;;;;24.90;41.13;101372.16;4971823;28;123726;-72
2023/06/30 08:55:37;;;;;;;4.28;1.40;;;;;;;24.93;41.30;101366.44;4989460;28;119488;-72
2023/06/30 08:58:04;;;;;;;3.88;1.60;;;;;;;24.99;41.20;101365.84;4989732;28;119253;-72
2023/06/30 09:00:43;;;;;;;2.70;1.40;;;;;;;25.09;40.98;101359.50;4974693;28;123744;-72
2023/06/30 09:03:10;;;;;;;3.38;1.48;;;;;;;25.15;40.48;101364.34;4988929;28;124341;-71
2023/06/30 09:05:40;;;;;;;3.45;1.30;;;;;;;25.21;40.57;101363.72;4989189;28;120439;-72
2023/06/30 09:08:15;;;;;;;2.33;1.20;;;;;;;25.27;40.55;101357.72;4989555;28;119286;-72
2023/06/30 09:10:43;;;;;;;2.80;1.30;;;;;;;25.31;40.57;101359.13;4985567;28;122861;-72
2023/06/30 09:13:11;;;;;;;2.58;1.30;;;;;;;25.34;40.20;101356.09;4965716;28;122943;-72
2023/06/30 09:15:39;;;;;;;3.30;1.38;;;;;;;25.39;40.60;101351.09;4961141;28;119165;-71
2023/06/30 09:18:07;;;;;;;2.22;1.25;;;;;;;25.48;39.93;101349.28;4967352;28;120122;-71
2023/06/30 09:20:36;;;;;;;4.47;1.38;;;;;;;25.60;39.73;101348.06;4987090;28;123937;-72
2023/06/30 09:23:06;;;;;;;4.97;1.30;;;;;;;25.68;39.44;101350.00;4988612;28;123943;-71
2023/06/30 09:25:33;;;;;;;4.55;1.40;;;;;;;25.75;38.92;101351.09;4987836;28;119932;-71
2023/06/30 09:28:08;;;;;;;5.13;1.20;;;;;;;25.80;38.54;101342.47;4988051;28;118647;-72
2023/06/30 09:30:37;;;;;;;3.95;1.52;;;;;;;25.86;38.98;101346.41;4985858;28;125132;-72
2023/06/30 09:33:08;;;;;;;2.67;1.13;;;;;;;25.92;38.50;101345.81;4989023;28;123995;-72
2023/06/30 09:35:40;;;;;;;3.50;1.35;;;;;;;25.94;38.88;101344.66;4986600;28;119477;-72
2023/06/30 09:38:15;;;;;;;4.65;1.60;;;;;;;25.97;38.27;101343.47;4985069;28;119021;-72
2023/06/30 09:40:47;;;;;;;3.10;1.50;;;;;;;26.00;38.96;101343.19;4970035;28;124065;-73
2023/06/30 09:43:20;;;;;;;2.65;1.40;;;;;;;26.03;38.69;101348.28;4985249;28;123581;-73
2023/06/30 09:45:59;;;;;;;3.25;1.42;;;;;;;26.08;38.36;101340.50;4969679;28;119450;-73
2023/06/30 09:48:40;;;;;;;3.20;1.48;;;;;;;26.16;38.55;101354.16;4966310;28;118741;-72
2023/06/30 09:51:07;;;;;;;3.80;1.50;;;;;;;26.17;38.05;101344.16;4985921;28;123952;-72
2023/06/30 09:53:39;;;;;;;3.53;1.60;;;;;;;26.10;37.76;101334.94;4986650;28;124448;-72
2023/06/30 09:56:08;;;;;;;5.82;1.52;;;;;;;26.00;37.97;101332.31;4970677;28;118314;-72
2023/06/30 09:58:37;;;;;;;3.40;1.42;;;;;;;25.93;38.11;101337.50;4988396;28;119229;-73
2023/06/30 10:01:05;;;;;;;6.30;2.00;;;;;;;25.90;38.52;101342.38;4987811;28;123806;-71
2023/06/30 10:03:32;;;;;;;4.45;1.77;;;;;;;25.87;38.64;101337.28;4988055;28;124227;-71
2023/06/30 10:05:59;;;;;;;2.22;1.50;;;;;;;25.84;38.33;101336.59;4988288;28;119653;-72
2023/06/30 10:08:27;;;;;;;3.65;1.80;;;;;;;25.87;38.51;101337.28;4969298;28;118829;-72
2023/06/30 10:10:56;;;;;;;5.43;1.88;;;;;;;25.86;38.42;101333.69;4970004;28;124426;-71
2023/06/30 10:13:25;;;;;;;2.72;1.58;;;;;;;25.90;37.95;101331.50;4988072;28;123712;-72
2023/06/30 10:15:53;;;;;;;3.40;1.67;;;;;;;25.91;37.66;101338.66;4967884;28;118780;-71
2023/06/30 10:18:22;;;;;;;4.15;1.80;;;;;;;25.89;37.77;101336.09;4981006;28;119047;-71
2023/06/30 10:20:53;;;;;;;4.10;1.90;;;;;;;25.92;37.96;101340.38;4984362;28;123951;-72
2023/06/30 10:23:22;;;;;;;3.33;1.60;;;;;;;25.92;37.60;101334.94;4992639;28;123610;-75
2023/06/30 10:25:50;;;;;;;4.60;1.65;;;;;;;25.91;38.03;101335.94;5004222;28;119112;-74
2023/06/30 10:28:40;;;;;;;3.63;1.75;;;;;;;25.94;37.52;101332.97;4987253;28;119145;-74
2023/06/30 10:31:08;;;;;;;3.00;1.75;;;;;;;25.96;37.64;101330.94;4986472;28;123791;-74
2023/06/30 10:33:35;;;;;;;4.85;1.65;;;;;;;25.97;37.61;101332.63;4987760;28;123660;-74
2023/06/30 10:36:04;;;;;;;6.00;1.83;;;;;;;25.95;37.17;101324.63;4988181;28;119415;-74
2023/06/30 10:38:31;;;;;;;3.05;1.73;;;;;;;25.96;37.69;101325.50;4988004;28;119945;-74
2023/06/30 10:41:19;;;;;;;3.85;1.98;;;;;;;25.98;37.59;101324.31;4969370;28;123059;-74
2023/06/30 10:44:01;;;;;;;4.32;1.60;;;;;;;25.99;37.44;101314.31;4982301;28;124490;-74
2023/06/30 10:46:52;;;;;;;3.15;1.83;;;;;;;26.02;38.07;101319.44;4987776;28;120263;-74
2023/06/30 10:49:32;;;;;;;3.80;2.08;;;;;;;26.05;38.06;101313.69;4966730;28;118462;-75
2023/06/30 10:52:07;;;;;;;4.00;2.20;;;;;;;26.10;37.74;101310.50;4983845;28;124065;-74
2023/06/30 10:54:44;;;;;;;3.47;1.83;;;;;;;26.13;37.96;101316.47;4968784;28;123449;-74
2023/06/30 10:57:24;;;;;;;4.50;2.10;;;;;;;26.15;37.30;101317.16;4968805;28;119252;-74
2023/06/30 11:00:11;;;;;;;3.40;1.90;;;;;;;26.12;37.20;101301.16;4974959;28;118142;-74
2023/06/30 11:02:58;;;;;;;3.30;1.98;;;;;;;26.12;37.40;101309.31;4982884;28;124174;-74
2023/06/30 11:05:33;;;;;;;5.60;1.90;;;;;;;26.15;37.82;101303.56;4983186;28;124601;-74
2023/06/30 11:08:09;;;;;;;3.28;2.00;;;;;;;26.17;37.69;101296.13;4976433;28;119982;-74
2023/06/30 11:10:43;;;;;;;4.53;2.03;;;;;;;26.21;37.55;101296.66;4985000;28;119361;-74
2023/06/30 11:13:11;;;;;;;4.35;2.15;;;;;;;26.30;37.96;101297.56;4981479;28;123695;-74
2023/06/30 11:15:38;;;;;;;2.70;2.10;;;;;;;26.42;37.79;101293.53;4992233;28;123036;-74
2023/06/30 11:18:10;;;;;;;5.50;2.38;;;;;;;26.50;37.07;101293.56;4979838;28;118390;-75
2023/06/30 11:20:38;;;;;;;3.20;2.03;;;;;;;26.53;36.44;101301.41;4987383;28;118536;-74
2023/06/30 11:23:16;;;;;;;3.17;1.70;;;;;;;26.48;36.48;101292.88;5003877;28;124766;-75
2023/06/30 11:25:43;;;;;;;3.13;1.80;;;;;;;26.46;36.54;101292.19;5000371;28;125097;-74